^^
Meteo Knjazevac Station Historical Data
Daily Summary for January 15, 2022 Units:  English    Metric   Both
Daily Weekly Monthly Yearly Custom
  High: Low: Average:
Temperature: 85 °F 62.1 °F 70.1 °F
Dew Point: 70.6 °F 61.8 °F 65.4 °F
Humidity: 99% 59.9% 87%
Wind Speed: 12mph 0mph 5.2mph
Wind Gust: 13mph - -
Wind- - South
Pressure: 29.90 in 29.85 in -
Precipitation: 0.00 in    
Historical Graphs
 
 
Tabular Data for January 15, 2022
Time Temperature Dew Point Pressure Wind Wind Speed Wind Gust Humidity Rainfall Rate (Hourly) solar Conditions
00:04 63.1 °F 62.9 °F 29.89 in NE 3.2 mph 4 mph 99% 0.00 in 0 W/m2
00:09 63 °F 62.7 °F 29.89 in NE 4 mph 5 mph 99% 0.00 in 0 W/m2
00:14 63 °F 62.7 °F 29.89 in NE 3.1 mph 3.1 mph 99% 0.00 in 0 W/m2
00:19 63 °F 62.7 °F 29.89 in NE 3.9 mph 4 mph 99% 0.00 in 0 W/m2
00:24 63 °F 62.7 °F 29.89 in ENE 5.1 mph 4.2 mph 99% 0.00 in 0 W/m2
00:28 63 °F 62.7 °F 29.89 in ENE 6.2 mph 4.5 mph 99% 0.00 in 0 W/m2
00:34 63 °F 62.7 °F 29.89 in East 7.6 mph 7 mph 99% 0.00 in 0 W/m2
00:39 63 °F 62.7 °F 29.89 in East 6.1 mph 9 mph 99% 0.00 in 0 W/m2
00:44 63 °F 62.7 °F 29.89 in ESE 7.1 mph 7 mph 99% 0.00 in 0 W/m2
00:49 62.9 °F 62.6 °F 29.89 in ESE 8 mph 9 mph 99% 0.00 in 0 W/m2
00:54 62.8 °F 62.5 °F 29.89 in ESE 7.8 mph 5.4 mph 99% 0.00 in 0 W/m2
00:59 62.8 °F 62.5 °F 29.89 in SE 5.7 mph 8 mph 99% 0.00 in 0 W/m2
01:04 62.8 °F 62.5 °F 29.89 in SE 4.8 mph 7 mph 99% 0.00 in 0 W/m2
01:09 62.8 °F 62.5 °F 29.89 in SE 2.5 mph 6 mph 99% 0.00 in 0 W/m2
01:14 62.8 °F 62.5 °F 29.89 in SSW 3.3 mph 3 mph 99% 0.00 in 0 W/m2
01:19 62.8 °F 62.5 °F 29.89 in SW 4.2 mph 2.2 mph 99% 0.00 in 0 W/m2
01:24 62.8 °F 62.5 °F 29.89 in SW 3.6 mph 5 mph 99% 0.00 in 0 W/m2
01:29 62.9 °F 62.6 °F 29.89 in South 4.6 mph 5 mph 99% 0.00 in 0 W/m2
01:33 63.1 °F 62.9 °F 29.89 in SE 4 mph 6 mph 99% 0.00 in 0 W/m2
01:39 63.1 °F 62.9 °F 29.89 in South 3.4 mph 5 mph 99% 0.00 in 0 W/m2
01:44 63.2 °F 62.9 °F 29.88 in SW 3.3 mph 4 mph 99% 0.00 in 0 W/m2
01:49 63.3 °F 63 °F 29.89 in South 2.9 mph 4 mph 99% 0.00 in 0 W/m2
01:54 63.3 °F 63 °F 29.89 in ENE 1.6 mph 4 mph 99% 0.00 in 0 W/m2
01:59 63.1 °F 62.9 °F 29.88 in NW 3.4 mph 3 mph 99% 0.00 in 0 W/m2
02:04 63.2 °F 62.9 °F 29.88 in SW 4.1 mph 5 mph 99% 0.00 in 0 W/m2
02:09 63.4 °F 63.1 °F 29.88 in South 6 mph 5 mph 99% 0.00 in 0 W/m2
02:14 63.6 °F 63.3 °F 29.88 in South 2.5 mph 7 mph 99% 0.00 in 0 W/m2
02:19 63.6 °F 63.3 °F 29.89 in SSW 1.7 mph 4 mph 99% 0.00 in 0 W/m2
02:24 63.5 °F 63.2 °F 29.89 in West 1.2 mph 2 mph 99% 0.00 in 0 W/m2
02:29 63.3 °F 63 °F 29.89 in NW 2.5 mph 1.8 mph 99% 0.00 in 0 W/m2
02:34 63.3 °F 63 °F 29.89 in East 2.8 mph 3.4 mph 99% 0.00 in 0 W/m2
02:39 63.3 °F 63 °F 29.89 in ENE 3.5 mph 4 mph 99% 0.00 in 0 W/m2
02:44 63.3 °F 63 °F 29.88 in ENE 2.4 mph 4 mph 99% 0.00 in 0 W/m2
02:49 63.3 °F 63 °F 29.88 in East 2.9 mph 3 mph 99% 0.00 in 0 W/m2
02:54 63.3 °F 63 °F 29.89 in ESE 3.3 mph 2.5 mph 99% 0.00 in 0 W/m2
02:59 63.5 °F 63.2 °F 29.89 in ESE 2.9 mph 4 mph 99% 0.00 in 0 W/m2
03:04 63.5 °F 63.2 °F 29.89 in East 3.9 mph 3.6 mph 99% 0.00 in 0 W/m2
03:09 63.5 °F 63.2 °F 29.88 in ESE 3.4 mph 5 mph 99% 0.00 in 0 W/m2
03:14 63.3 °F 63.1 °F 29.89 in ESE 2.8 mph 4 mph 99% 0.00 in 0 W/m2
03:19 63.2 °F 62.9 °F 29.89 in ESE 2.7 mph 3 mph 99% 0.00 in 0 W/m2
03:24 63.2 °F 62.9 °F 29.89 in ESE 3.7 mph 3 mph 99% 0.00 in 0 W/m2
03:29 63.3 °F 63 °F 29.88 in ESE 4.3 mph 5 mph 99% 0.00 in 0 W/m2
03:34 63.3 °F 63 °F 29.88 in ESE 4.5 mph 5 mph 99% 0.00 in 0 W/m2
03:39 63.5 °F 63.2 °F 29.88 in SE 4.3 mph 6 mph 99% 0.00 in 0 W/m2
03:44 63.5 °F 63.2 °F 29.88 in SE 2.2 mph 6 mph 99% 0.00 in 0 W/m2
03:49 63.3 °F 63 °F 29.88 in SSE 2.6 mph 3 mph 99% 0.00 in 0 W/m2
03:54 63.2 °F 62.9 °F 29.88 in SSW 3.1 mph 3 mph 99% 0.00 in 0 W/m2
03:59 63.1 °F 62.8 °F 29.89 in SSE 2.9 mph 3 mph 99% 0.00 in 0 W/m2
04:04 62.9 °F 62.6 °F 29.89 in South 2.5 mph 3 mph 99% 0.00 in 0 W/m2
04:09 62.8 °F 62.5 °F 29.89 in SW 1.7 mph 3 mph 99% 0.00 in 0 W/m2
04:14 62.8 °F 62.5 °F 29.89 in WNW 2 mph 2 mph 99% 0.00 in 0 W/m2
04:19 62.7 °F 62.4 °F 29.89 in North 1.5 mph 2 mph 99% 0.00 in 0 W/m2
04:24 62.6 °F 62.3 °F 29.89 in East 1.5 mph 0.7 mph 99% 0.00 in 0 W/m2
04:29 62.6 °F 62.3 °F 29.89 in ENE 2.3 mph 1.1 mph 99% 0.00 in 0 W/m2
04:34 62.6 °F 62.3 °F 29.89 in ENE 2 mph 2 mph 99% 0.00 in 0 W/m2
04:39 62.6 °F 62.3 °F 29.89 in ENE 1.6 mph 3 mph 99% 0.00 in 0 W/m2
04:44 62.4 °F 62.1 °F 29.88 in ENE 1 mph 3 mph 99% 0.00 in 0 W/m2
04:49 62.4 °F 62.1 °F 29.89 in NE 1.8 mph 2 mph 99% 0.00 in 0 W/m2
04:54 62.3 °F 62 °F 29.89 in NE 0.5 mph 2 mph 99% 0.00 in 0 W/m2
04:59 62.2 °F 62 °F 29.89 in Calm   1 mph 99% 0.00 in 0 W/m2
05:03 62.1 °F 61.8 °F 29.88 in NE 1.4 mph 1.1 mph 99% 0.00 in 0 W/m2
05:08 62.2 °F 61.9 °F 29.89 in ENE 2.5 mph 2 mph 99% 0.00 in 0 W/m2
05:14 62.4 °F 62.1 °F 29.89 in SE 3.5 mph 3 mph 99% 0.00 in 0 W/m2
05:19 62.7 °F 62.3 °F 29.89 in SE 3.3 mph 4 mph 99% 0.00 in 0 W/m2
05:24 62.6 °F 62.3 °F 29.89 in SE 3.8 mph 3 mph 99% 0.00 in 0 W/m2
05:29 62.8 °F 62.5 °F 29.89 in SE 3.4 mph 5 mph 99% 0.00 in 1 W/m2
05:34 62.8 °F 62.5 °F 29.89 in ESE 4.6 mph 4 mph 99% 0.00 in 2 W/m2
05:39 63 °F 62.7 °F 29.89 in ESE 5.5 mph 6 mph 99% 0.00 in 4 W/m2
05:44 63.1 °F 62.8 °F 29.89 in SE 5.9 mph 6 mph 99% 0.00 in 8 W/m2
05:49 63.1 °F 62.9 °F 29.89 in SE 4.2 mph 7 mph 99% 0.00 in 13 W/m2
05:54 63.1 °F 62.9 °F 29.89 in SSE 3.9 mph 5 mph 99% 0.00 in 20 W/m2
05:59 63.1 °F 62.9 °F 29.89 in SSE 4.2 mph 5 mph 99% 0.00 in 26 W/m2
06:04 63.1 °F 62.9 °F 29.89 in South 4.4 mph 6 mph 99% 0.00 in 33 W/m2
06:09 63 °F 62.8 °F 29.89 in South 2.8 mph 5 mph 99% 0.00 in 40 W/m2
06:14 63 °F 62.7 °F 29.89 in SSW 2.1 mph 4 mph 99% 0.00 in 48 W/m2
06:19 62.9 °F 62.6 °F 29.89 in WSW 1.7 mph 3 mph 99% 0.00 in 53 W/m2
06:24 62.8 °F 62.5 °F 29.89 in WSW 1.7 mph 2 mph 99% 0.00 in 60 W/m2
06:29 62.8 °F 62.5 °F 29.89 in West 2.4 mph 2 mph 99% 0.00 in 68 W/m2
06:34 62.8 °F 62.5 °F 29.89 in WNW 1.7 mph 3 mph 99% 0.00 in 74 W/m2
06:39 62.8 °F 62.6 °F 29.89 in West 2.3 mph 3 mph 99% 0.00 in 79 W/m2
06:44 63.1 °F 62.9 °F 29.89 in SSE 2.3 mph 3 mph 99% 0.00 in 93 W/m2
06:49 63.3 °F 63 °F 29.89 in ESE 1.8 mph 3 mph 99% 0.00 in 94 W/m2
06:54 63.6 °F 63.3 °F 29.89 in East 2.2 mph 1.3 mph 99% 0.00 in 105 W/m2
06:59 63.8 °F 63.5 °F 29.90 in East 3.3 mph 4 mph 99% 0.00 in 116 W/m2
07:04 64 °F 63.8 °F 29.90 in SE 3.8 mph 4 mph 99% 0.00 in 122 W/m2
07:09 64.2 °F 63.9 °F 29.90 in ESE 2.5 mph 5 mph 99% 0.00 in 118 W/m2
07:14 64.4 °F 64.1 °F 29.90 in ESE 2.8 mph 3 mph 99% 0.00 in 151 W/m2
07:19 64.6 °F 64.3 °F 29.90 in ESE 2.3 mph 4 mph 99% 0.00 in 171 W/m2
07:24 64.7 °F 64.3 °F 29.90 in NE 2.6 mph 2.7 mph 98.7% 0.00 in 184 W/m2
07:28 64.9 °F 64.4 °F 29.90 in East 4.2 mph 4 mph 98% 0.00 in 192 W/m2
07:34 65.4 °F 64.8 °F 29.90 in SE 4.9 mph 5 mph 98% 0.00 in 187 W/m2
07:39 65.7 °F 64.5 °F 29.90 in SE 6.3 mph 7 mph 96.1% 0.00 in 237 W/m2
07:43 65.8 °F 64.7 °F 29.90 in SE 3.1 mph 7 mph 96% 0.00 in 243 W/m2
07:49 66.2 °F 65 °F 29.90 in SSE 2.8 mph 4 mph 96% 0.00 in 272 W/m2
07:54 66.4 °F 65.1 °F 29.90 in South 2.9 mph 3.1 mph 95.6% 0.00 in 289 W/m2
07:59 66.7 °F 65.1 °F 29.90 in South 3.5 mph 4 mph 94.6% 0.00 in 307 W/m2
08:03 67 °F 65.2 °F 29.90 in SSE 3.1 mph 5 mph 94% 0.00 in 318 W/m2
08:09 67.4 °F 65.3 °F 29.90 in South 2.7 mph 4 mph 93% 0.00 in 341 W/m2
08:14 67.6 °F 65.5 °F 29.90 in South 3 mph 4 mph 93% 0.00 in 355 W/m2
08:19 67.8 °F 65.5 °F 29.90 in SSW 3.6 mph 4 mph 92.2% 0.00 in 372 W/m2
08:24 68.3 °F 65.5 °F 29.90 in SW 5.4 mph 6 mph 91% 0.00 in 395 W/m2
08:29 68.8 °F 65.7 °F 29.90 in SW 6.5 mph 7 mph 89.6% 0.00 in 411 W/m2
08:34 69.5 °F 66.1 °F 29.90 in SW 6.4 mph 7 mph 88.7% 0.00 in 426 W/m2
08:39 70.3 °F 66.3 °F 29.90 in SW 8.1 mph 9 mph 87.4% 0.00 in 442 W/m2
08:44 70.8 °F 66.2 °F 29.90 in SW 8 mph 9 mph 85.6% 0.00 in 457 W/m2
08:49 71.2 °F 66.4 °F 29.90 in SW 9 mph 9 mph 84.6% 0.00 in 473 W/m2
08:53 71.7 °F 66.6 °F 29.90 in SW 9.9 mph 7.6 mph 84% 0.00 in 486 W/m2
08:59 72 °F 66.5 °F 29.90 in SW 9 mph 10 mph 83% 0.00 in 509 W/m2
09:04 72.2 °F 66.8 °F 29.90 in SW 8.8 mph 10 mph 83% 0.00 in 532 W/m2
09:09 72.5 °F 66.4 °F 29.90 in SW 7.7 mph 9 mph 81.4% 0.00 in 543 W/m2
09:14 72.8 °F 66.6 °F 29.90 in SW 7.4 mph 10 mph 81% 0.00 in 549 W/m2
09:19 73.2 °F 66.9 °F 29.90 in SW 8.5 mph 8 mph 80.6% 0.00 in 573 W/m2
09:24 73.4 °F 67 °F 29.90 in SW 8.7 mph 9 mph 80.3% 0.00 in 588 W/m2
09:29 73.8 °F 67.2 °F 29.90 in SW 9.5 mph 10 mph 79.8% 0.00 in 603 W/m2
09:34 74.1 °F 67.3 °F 29.90 in SW 7.3 mph 11 mph 79.4% 0.00 in 613 W/m2
09:39 74.5 °F 67.5 °F 29.90 in SW 8.7 mph 7 mph 78.9% 0.00 in 636 W/m2
09:43 74.9 °F 67.7 °F 29.90 in SW 8.6 mph 10 mph 78.4% 0.00 in 644 W/m2
09:49 75.2 °F 67.9 °F 29.90 in SW 8.6 mph 10 mph 78% 0.00 in 665 W/m2
09:54 75.4 °F 67.9 °F 29.90 in SW 7.7 mph 10 mph 77.6% 0.00 in 678 W/m2
09:59 75.4 °F 67.8 °F 29.90 in SW 7.6 mph 9 mph 77.1% 0.00 in 690 W/m2
10:04 75.9 °F 68.3 °F 29.90 in SW 7.1 mph 9 mph 77.5% 0.00 in 703 W/m2
10:09 76.5 °F 68.3 °F 29.90 in SW 7.1 mph 8 mph 75.9% 0.00 in 717 W/m2
10:14 76.8 °F 68.3 °F 29.89 in SW 8.1 mph 5.8 mph 75% 0.00 in 727 W/m2
10:19 76.8 °F 68.1 °F 29.89 in SW 8.1 mph 9 mph 74.4% 0.00 in 732 W/m2
10:24 77.1 °F 68.4 °F 29.89 in SW 7.2 mph 6.3 mph 74.5% 0.00 in 743 W/m2
10:29 77.4 °F 68.5 °F 29.89 in SSW 7.1 mph 7 mph 74.4% 0.00 in 750 W/m2
10:34 77.5 °F 68.6 °F 29.89 in SSW 6.5 mph 8 mph 74% 0.00 in 765 W/m2
10:39 77.7 °F 68.8 °F 29.89 in SW 8.9 mph 10 mph 73.9% 0.00 in 768 W/m2
10:44 78.1 °F 69 °F 29.89 in SW 7.5 mph 10 mph 73.6% 0.00 in 786 W/m2
10:49 78.4 °F 69.3 °F 29.89 in SSW 7.2 mph 8 mph 73.5% 0.00 in 708 W/m2
10:54 78.6 °F 69.1 °F 29.89 in SSW 8.1 mph 7 mph 72.8% 0.00 in 693 W/m2
10:59 78.8 °F 69.1 °F 29.89 in SSW 6.9 mph 9 mph 72.4% 0.00 in 767 W/m2
11:04 79 °F 68.8 °F 29.89 in SSW 7 mph 8 mph 71.1% 0.00 in 578 W/m2
11:08 79.1 °F 68.6 °F 29.88 in South 8.1 mph 8 mph 70.4% 0.00 in 437 W/m2
11:14 79.1 °F 69.2 °F 29.88 in SSE 8.4 mph 9 mph 71.6% 0.00 in 341 W/m2
11:19 79.6 °F 69.2 °F 29.88 in SSE 7.6 mph 8 mph 70.7% 0.00 in 260 W/m2
11:24 80.2 °F 69.4 °F 29.88 in SSW 9 mph 9 mph 69.8% 0.00 in 356 W/m2
11:29 80.6 °F 69.6 °F 29.88 in SW 8.5 mph 10 mph 69.1% 0.00 in 668 W/m2
11:34 80.8 °F 69.5 °F 29.88 in SW 12 mph 10 mph 68.6% 0.00 in 859 W/m2
11:39 81.1 °F 69.9 °F 29.88 in SW 7.9 mph 13 mph 68.9% 0.00 in 936 W/m2
11:44 81.5 °F 70.1 °F 29.88 in SW 6 mph 10 mph 68.4% 0.00 in 978 W/m2
11:49 81.9 °F 70.4 °F 29.88 in SSW 6.4 mph 7 mph 68.1% 0.00 in 1004 W/m2
11:53 81.9 °F 70 °F 29.88 in SSW 6.7 mph 7 mph 67.5% 0.00 in 456 W/m2
11:59 81.7 °F 70.3 °F 29.88 in SW 6.7 mph 9 mph 68.5% 0.00 in 1038 W/m2
12:03 81.5 °F 69.8 °F 29.88 in SW 7.9 mph 9 mph 67.9% 0.00 in 457 W/m2
12:09 81 °F 69.5 °F 29.88 in WNW 6.5 mph 10 mph 68% 0.00 in 710 W/m2
12:14 80.8 °F 69.1 °F 29.88 in West 4.8 mph 7 mph 67.6% 0.00 in 782 W/m2
12:19 80.8 °F 68.5 °F 29.88 in WSW 6.7 mph 6.3 mph 66.3% 0.00 in 593 W/m2
12:23 80.9 °F 69.1 °F 29.88 in West 3.5 mph 8 mph 67.7% 0.00 in 930 W/m2
12:29 81.5 °F 69.5 °F 29.88 in WNW 5.5 mph 6 mph 67% 0.00 in 950 W/m2
12:34 82.2 °F 69.1 °F 29.88 in WNW 6.1 mph 7 mph 64.5% 0.00 in 964 W/m2
12:39 82.9 °F 69.6 °F 29.87 in NW 6.3 mph 8 mph 64.3% 0.00 in 962 W/m2
12:44 83.4 °F 70.3 °F 29.87 in NW 5 mph 8 mph 64.8% 0.00 in 951 W/m2
12:49 84.3 °F 70.6 °F 29.87 in WNW 7.2 mph 6.9 mph 63.7% 0.00 in 966 W/m2
12:54 84.4 °F 69.7 °F 29.87 in WNW 6.6 mph 9 mph 61.6% 0.00 in 962 W/m2
12:59 84 °F 69 °F 29.86 in NW 7.5 mph 7 mph 60.8% 0.00 in 667 W/m2
13:04 83.7 °F 69.6 °F 29.86 in WNW 8.7 mph 9 mph 62.7% 0.00 in 956 W/m2
13:09 83.8 °F 69.6 °F 29.86 in WNW 8.1 mph 10 mph 62.4% 0.00 in 1033 W/m2
13:14 83.9 °F 69.7 °F 29.86 in WNW 7.3 mph 8 mph 62.4% 0.00 in 633 W/m2
13:19 83.6 °F 69.4 °F 29.86 in WNW 9.1 mph 11 mph 62.4% 0.00 in 386 W/m2
13:24 83.2 °F 69.2 °F 29.86 in WNW 7.9 mph 11 mph 62.9% 0.00 in 407 W/m2
13:29 82.9 °F 68.9 °F 29.86 in West 6.2 mph 8 mph 62.8% 0.00 in 283 W/m2
13:34 82.7 °F 68.8 °F 29.86 in West 6.6 mph 8 mph 63.1% 0.00 in 259 W/m2
13:39 82.3 °F 68.9 °F 29.86 in West 8 mph 8 mph 63.9% 0.00 in 525 W/m2
13:44 82.5 °F 69 °F 29.86 in West 10 mph 10 mph 63.7% 0.00 in 847 W/m2
13:49 82.5 °F 69 °F 29.86 in WNW 10.9 mph 13 mph 63.9% 0.00 in 683 W/m2
13:54 82.6 °F 69.3 °F 29.86 in WNW 8.8 mph 13 mph 64.2% 0.00 in 917 W/m2
13:59 83 °F 69.2 °F 29.86 in West 6.6 mph 10 mph 63.3% 0.00 in 804 W/m2
14:04 83.3 °F 69.5 °F 29.86 in West 4.6 mph 8 mph 63.3% 0.00 in 373 W/m2
14:09 83.2 °F 69.1 °F 29.86 in West 7.8 mph 6 mph 62.6% 0.00 in 956 W/m2
14:14 83.5 °F 68.9 °F 29.86 in WNW 8.8 mph 11 mph 61.6% 0.00 in 525 W/m2
14:19 83.2 °F 68.7 °F 29.86 in WNW 8.1 mph 11 mph 61.8% 0.00 in 287 W/m2
14:24 83.1 °F 68.8 °F 29.85 in WNW 11.4 mph 9 mph 62.1% 0.00 in 859 W/m2
14:29 83.7 °F 69.2 °F 29.85 in West 10.9 mph 7.2 mph 61.8% 0.00 in 859 W/m2
14:34 84.3 °F 69.7 °F 29.85 in West 9.5 mph 13 mph 61.7% 0.00 in 841 W/m2
14:39 85 °F 69.5 °F 29.85 in WNW 8.4 mph 12 mph 59.9% 0.00 in 839 W/m2
Knjazevac, Serbia
Compliments of Weather Underground - 2 mb